createdAt,value
2023-05-16T00:00:29.524Z,90.33
2023-05-16T00:01:24.679Z,90.36
2023-05-16T00:02:20.991Z,90.44
2023-05-16T00:03:16.388Z,90.52
2023-05-16T00:04:12.104Z,90.57
2023-05-16T00:05:07.225Z,90.65
2023-05-16T00:06:02.293Z,90.68
2023-05-16T00:06:58.311Z,90.71
2023-05-16T00:07:53.513Z,90.76
2023-05-16T00:08:49.262Z,90.80
2023-05-16T00:09:44.331Z,90.89
2023-05-16T00:10:39.691Z,90.97
2023-05-16T00:11:35.437Z,91.06
2023-05-16T00:12:30.786Z,91.12
2023-05-16T00:13:25.903Z,91.36
2023-05-16T00:14:22.209Z,91.53
2023-05-16T00:15:17.392Z,91.55
2023-05-16T00:16:13.328Z,91.43
2023-05-16T00:17:08.684Z,91.28
2023-05-16T00:18:03.892Z,91.07
2023-05-16T00:18:59.568Z,91.04
2023-05-16T00:19:54.761Z,90.99
2023-05-16T00:20:50.496Z,90.83
2023-05-16T00:21:45.673Z,90.76
2023-05-16T00:22:41.075Z,90.74
2023-05-16T00:23:36.715Z,90.67
2023-05-16T00:24:31.883Z,90.60
2023-05-16T00:25:27.140Z,90.75
2023-05-16T00:26:23.275Z,90.90
2023-05-16T00:27:18.494Z,90.86
2023-05-16T00:28:14.404Z,90.67
2023-05-16T00:29:09.432Z,90.53
2023-05-16T00:30:04.481Z,90.43
2023-05-16T00:31:00.358Z,90.46
2023-05-16T00:31:55.607Z,90.41
2023-05-16T00:32:51.363Z,90.31
2023-05-16T00:33:47.228Z,90.25
2023-05-16T00:34:41.777Z,90.15
2023-05-16T00:35:37.499Z,90.08
2023-05-16T00:36:32.714Z,90.06
2023-05-16T00:37:28.028Z,90.10
2023-05-16T00:38:24.205Z,90.18
2023-05-16T00:39:19.387Z,90.41
2023-05-16T00:40:15.324Z,90.55
2023-05-16T00:41:10.448Z,90.73
2023-05-16T00:42:05.620Z,90.98
2023-05-16T00:43:00.832Z,91.19
2023-05-16T00:43:55.998Z,91.32
2023-05-16T00:44:52.662Z,91.53
2023-05-16T00:45:47.927Z,91.71
2023-05-16T00:46:43.734Z,91.85
2023-05-16T00:47:38.892Z,91.90
2023-05-16T00:48:33.844Z,92.00
2023-05-16T00:49:29.761Z,92.11
2023-05-16T00:50:24.891Z,92.20
2023-05-16T00:51:20.729Z,92.21
2023-05-16T00:52:16.110Z,92.29
2023-05-16T00:53:11.199Z,92.31
2023-05-16T00:54:06.995Z,92.36
2023-05-16T00:55:02.218Z,92.37
2023-05-16T00:55:57.382Z,92.38
2023-05-16T00:56:53.645Z,92.36
2023-05-16T00:57:48.885Z,92.35
2023-05-16T00:58:44.595Z,92.36
2023-05-16T00:59:39.798Z,92.35
2023-05-16T01:00:34.934Z,92.35
2023-05-16T01:01:30.152Z,92.31
2023-05-16T01:02:25.285Z,92.29
2023-05-16T01:03:20.760Z,92.27
2023-05-16T01:04:15.933Z,92.32
2023-05-16T01:05:11.058Z,92.35
2023-05-16T01:06:06.894Z,92.40
2023-05-16T01:07:01.990Z,92.39
2023-05-16T01:07:57.161Z,92.35
2023-05-16T01:08:52.374Z,92.32
2023-05-16T01:09:47.380Z,92.29
2023-05-16T01:10:42.425Z,92.30
2023-05-16T01:11:37.689Z,92.29
2023-05-16T01:12:32.579Z,92.25
2023-05-16T01:13:27.639Z,92.43
2023-05-16T01:14:22.691Z,92.33
2023-05-16T01:15:17.956Z,92.33
2023-05-16T01:16:13.104Z,92.32
2023-05-16T01:18:33.704Z,92.96
2023-05-16T01:19:28.859Z,92.76
2023-05-16T01:20:23.841Z,92.62
2023-05-16T01:21:19.053Z,92.55
2023-05-16T01:22:14.332Z,92.43
2023-05-16T01:23:09.372Z,92.34
2023-05-16T01:24:04.538Z,92.24
2023-05-16T01:24:59.718Z,92.10
2023-05-16T01:25:54.856Z,91.99
2023-05-16T01:26:50.070Z,91.96
2023-05-16T01:27:45.191Z,91.94
2023-05-16T01:28:40.511Z,91.87
2023-05-16T01:29:35.540Z,91.76
2023-05-16T01:30:30.698Z,91.72
2023-05-16T01:31:25.901Z,91.69
2023-05-16T01:32:21.127Z,91.66
2023-05-16T01:33:16.142Z,91.64
2023-05-16T01:34:11.315Z,91.55
2023-05-16T01:35:06.453Z,91.54
2023-05-16T01:36:01.667Z,91.52
2023-05-16T01:36:56.790Z,91.52
2023-05-16T01:37:52.125Z,91.48
2023-05-16T01:38:47.260Z,91.45
2023-05-16T01:39:42.311Z,91.54
2023-05-16T01:40:37.446Z,91.50
2023-05-16T01:41:32.627Z,91.55
2023-05-16T01:42:27.807Z,91.50
2023-05-16T01:43:22.985Z,91.39
2023-05-16T01:44:18.120Z,91.39
2023-05-16T01:45:13.275Z,91.36
2023-05-16T01:46:08.398Z,91.33
2023-05-16T01:47:03.704Z,91.40
2023-05-16T01:47:58.796Z,91.28
2023-05-16T01:48:54.018Z,91.05
2023-05-16T01:49:49.034Z,90.90
2023-05-16T01:50:44.178Z,90.67
2023-05-16T01:51:39.346Z,90.56
2023-05-16T01:52:34.665Z,90.45
2023-05-16T01:53:29.678Z,90.43
2023-05-16T01:54:24.904Z,90.47
2023-05-16T01:55:20.048Z,90.47
2023-05-16T01:56:15.200Z,90.50
2023-05-16T01:57:10.347Z,90.50
2023-05-16T01:58:05.518Z,90.55
2023-05-16T01:59:00.798Z,90.60
2023-05-16T01:59:55.848Z,90.69
2023-05-16T02:00:51.039Z,90.81
2023-05-16T02:01:46.177Z,90.90
2023-05-16T02:02:41.355Z,91.00
2023-05-16T02:03:36.723Z,91.11
2023-05-16T02:04:31.623Z,91.18
2023-05-16T02:05:26.943Z,91.32
2023-05-16T02:06:21.936Z,91.46
2023-05-16T02:07:17.132Z,91.58
2023-05-16T02:08:12.462Z,91.70
2023-05-16T02:09:07.617Z,91.78
2023-05-16T02:10:02.660Z,91.90
2023-05-16T02:10:57.889Z,91.98
2023-05-16T02:11:53.041Z,91.98
2023-05-16T02:12:48.208Z,92.10
2023-05-16T02:13:43.338Z,92.01
2023-05-16T02:14:38.573Z,91.88
2023-05-16T02:15:33.659Z,91.60
2023-05-16T02:16:28.863Z,91.19
2023-05-16T02:17:23.955Z,90.93
2023-05-16T02:18:19.151Z,90.79
2023-05-16T02:19:14.498Z,90.69
2023-05-16T02:20:09.567Z,90.66
2023-05-16T02:21:04.743Z,90.63
2023-05-16T02:21:59.900Z,90.67
2023-05-16T02:22:55.038Z,90.79
2023-05-16T02:23:50.385Z,90.81
2023-05-16T02:24:45.256Z,90.69
2023-05-16T02:25:40.424Z,90.57
2023-05-16T02:26:35.579Z,90.55
2023-05-16T02:27:30.820Z,90.56
2023-05-16T02:28:26.019Z,90.57
2023-05-16T02:29:21.309Z,90.57
2023-05-16T02:30:16.344Z,90.62
2023-05-16T02:31:11.631Z,90.64
2023-05-16T02:32:06.661Z,90.68
2023-05-16T02:33:01.895Z,90.72
2023-05-16T02:33:56.922Z,90.82
2023-05-16T02:34:51.969Z,90.87
2023-05-16T02:35:47.101Z,90.94
2023-05-16T02:36:42.264Z,91.16
2023-05-16T02:37:37.430Z,91.39
2023-05-16T02:38:32.615Z,91.57
2023-05-16T02:39:27.904Z,91.53
2023-05-16T02:40:22.952Z,91.53
2023-05-16T02:41:18.075Z,91.44
2023-05-16T02:42:13.290Z,91.36
2023-05-16T02:43:08.422Z,91.21
2023-05-16T02:44:03.557Z,91.05
2023-05-16T02:44:58.909Z,90.94
2023-05-16T02:45:54.000Z,90.98
2023-05-16T02:46:49.160Z,91.02
2023-05-16T02:47:44.286Z,91.04
2023-05-16T02:48:39.408Z,90.96
2023-05-16T02:49:34.767Z,90.78
2023-05-16T02:50:29.788Z,90.60
2023-05-16T02:51:26.330Z,90.51
2023-05-16T02:52:21.590Z,90.48
2023-05-16T02:53:16.653Z,90.47
2023-05-16T02:54:11.821Z,90.55
2023-05-16T02:55:20.936Z,90.62
2023-05-16T02:56:03.113Z,90.70
2023-05-16T02:56:57.231Z,90.95
2023-05-16T02:57:52.530Z,91.14
2023-05-16T02:58:47.743Z,91.17
2023-05-16T02:59:42.918Z,91.19
2023-05-16T03:00:38.187Z,91.00
2023-05-16T03:01:33.402Z,91.03
2023-05-16T03:02:28.638Z,91.03
2023-05-16T03:03:23.908Z,90.92
2023-05-16T03:04:18.894Z,90.79
2023-05-16T03:05:14.058Z,90.71
2023-05-16T03:06:09.276Z,90.75
2023-05-16T03:07:04.418Z,90.90
2023-05-16T03:07:59.630Z,91.02
2023-05-16T03:08:54.806Z,91.04
2023-05-16T03:09:49.998Z,90.91
2023-05-16T03:10:45.349Z,90.82
2023-05-16T03:11:40.428Z,90.69
2023-05-16T03:12:35.575Z,90.57
2023-05-16T03:13:30.762Z,90.37
2023-05-16T03:14:25.961Z,90.22
2023-05-16T03:15:21.116Z,90.02
2023-05-16T03:16:16.323Z,89.85
2023-05-16T03:17:11.513Z,89.84
2023-05-16T03:18:06.746Z,89.82
2023-05-16T03:19:02.009Z,89.88
2023-05-16T03:19:57.373Z,89.93
2023-05-16T03:20:52.364Z,89.98
2023-05-16T03:21:47.637Z,89.97
2023-05-16T03:22:42.868Z,90.11
2023-05-16T03:23:37.939Z,89.94
2023-05-16T03:24:33.113Z,89.92
2023-05-16T03:25:28.223Z,89.81
2023-05-16T03:26:23.138Z,89.71
2023-05-16T03:27:18.129Z,89.74
2023-05-16T03:28:14.734Z,89.76
2023-05-16T03:29:08.235Z,89.75
2023-05-16T03:30:03.397Z,89.79
2023-05-16T03:30:58.347Z,89.85
2023-05-16T03:31:53.502Z,89.93
2023-05-16T03:32:48.512Z,89.97
2023-05-16T03:33:43.517Z,90.04
2023-05-16T03:34:38.514Z,90.21
2023-05-16T03:35:33.620Z,90.19
2023-05-16T03:36:28.606Z,90.15
2023-05-16T03:37:23.683Z,90.16
2023-05-16T03:38:18.722Z,90.29
2023-05-16T03:39:13.842Z,90.24
2023-05-16T03:40:08.867Z,90.15
2023-05-16T03:41:03.916Z,90.10
2023-05-16T03:41:58.948Z,90.08
2023-05-16T03:42:54.258Z,89.98
2023-05-16T03:43:49.733Z,90.00
2023-05-16T03:44:45.160Z,89.97
2023-05-16T03:45:40.272Z,90.01
2023-05-16T03:46:36.344Z,90.08
2023-05-16T03:47:30.931Z,90.20
2023-05-16T03:48:26.318Z,90.30
2023-05-16T03:49:21.735Z,90.40
2023-05-16T03:50:17.013Z,90.49
2023-05-16T03:51:12.294Z,90.61
2023-05-16T03:52:07.684Z,90.75
2023-05-16T03:53:03.028Z,90.88
2023-05-16T03:53:58.473Z,90.93
2023-05-16T03:54:53.886Z,90.91
2023-05-16T03:55:49.135Z,91.00
2023-05-16T03:56:48.903Z,90.95
2023-05-16T03:57:44.216Z,90.91
2023-05-16T03:58:39.579Z,90.79
2023-05-16T03:59:35.060Z,90.69
2023-05-16T04:00:30.551Z,90.57
2023-05-16T04:01:25.947Z,90.42
2023-05-16T04:02:21.302Z,90.31
2023-05-16T04:03:16.670Z,90.17
2023-05-16T04:04:11.940Z,90.06
2023-05-16T04:05:07.254Z,89.96
2023-05-16T04:06:02.602Z,89.85
2023-05-16T04:06:57.943Z,89.82
2023-05-16T04:07:54.321Z,89.82
2023-05-16T04:08:48.681Z,89.81
2023-05-16T04:09:44.144Z,89.82
2023-05-16T04:10:39.305Z,89.90
2023-05-16T04:11:34.723Z,89.93
2023-05-16T04:12:29.974Z,89.91
2023-05-16T04:13:25.442Z,89.88
2023-05-16T04:14:20.997Z,89.86
2023-05-16T04:15:16.037Z,89.79
2023-05-16T04:16:11.320Z,89.79
2023-05-16T04:17:06.467Z,89.85
2023-05-16T04:18:01.406Z,89.82
2023-05-16T04:18:56.684Z,89.76
2023-05-16T04:19:53.796Z,89.69
2023-05-16T04:20:48.909Z,89.68
2023-05-16T04:21:44.062Z,89.61
2023-05-16T04:22:39.164Z,89.58
2023-05-16T04:23:34.236Z,89.65
2023-05-16T04:24:29.337Z,89.65
2023-05-16T04:25:24.443Z,89.65
2023-05-16T04:26:19.528Z,89.60
2023-05-16T04:27:14.477Z,89.56
2023-05-16T04:28:10.373Z,89.56
2023-05-16T04:29:05.415Z,89.56
2023-05-16T04:30:00.648Z,89.56
2023-05-16T04:30:55.686Z,89.63
2023-05-16T04:31:50.830Z,89.74
2023-05-16T04:32:45.773Z,89.76
2023-05-16T04:33:40.874Z,89.78
2023-05-16T04:34:37.881Z,89.82
2023-05-16T04:35:31.283Z,89.77
2023-05-16T04:36:26.831Z,89.84
2023-05-16T04:37:22.271Z,89.96
2023-05-16T04:38:17.682Z,90.02
2023-05-16T04:39:13.355Z,89.96
2023-05-16T04:40:08.631Z,90.04
2023-05-16T04:41:04.222Z,90.00
2023-05-16T04:41:59.662Z,89.89
2023-05-16T04:42:55.090Z,89.89
2023-05-16T04:43:50.517Z,90.00
2023-05-16T04:44:46.054Z,89.90
2023-05-16T04:45:41.319Z,89.91
2023-05-16T04:46:36.442Z,90.02
2023-05-16T04:47:31.399Z,89.91
2023-05-16T04:48:26.518Z,89.91
2023-05-16T04:49:21.523Z,89.96
2023-05-16T04:50:16.811Z,90.01
2023-05-16T04:51:11.655Z,89.97
2023-05-16T04:52:06.789Z,89.94
2023-05-16T04:53:01.780Z,89.86
2023-05-16T04:53:56.905Z,89.86
2023-05-16T04:54:52.052Z,89.92
2023-05-16T04:55:46.965Z,90.02
2023-05-16T04:56:42.032Z,90.07
2023-05-16T04:57:40.442Z,90.18
2023-05-16T04:58:35.489Z,90.14
2023-05-16T04:59:30.608Z,90.15
2023-05-16T05:00:25.981Z,90.22
2023-05-16T05:01:20.710Z,90.20
2023-05-16T05:02:15.842Z,90.28
2023-05-16T05:03:10.944Z,90.24
2023-05-16T05:04:05.907Z,90.20
2023-05-16T05:05:01.162Z,90.20
2023-05-16T05:05:56.341Z,90.15
2023-05-16T05:06:52.831Z,90.11
2023-05-16T05:07:48.265Z,90.08
2023-05-16T05:08:44.205Z,90.07
2023-05-16T05:09:39.719Z,90.11
2023-05-16T05:10:35.190Z,90.17
2023-05-16T05:11:30.924Z,90.10
2023-05-16T05:12:26.386Z,89.99
2023-05-16T05:13:22.230Z,89.87
2023-05-16T05:14:17.580Z,89.83
2023-05-16T05:15:12.895Z,89.91
2023-05-16T05:16:08.846Z,89.99
2023-05-16T05:17:04.360Z,89.94
2023-05-16T05:17:59.903Z,89.94
2023-05-16T05:18:56.200Z,89.88
2023-05-16T05:19:51.609Z,89.76
2023-05-16T05:20:47.466Z,89.61
2023-05-16T05:21:42.944Z,89.45
2023-05-16T05:22:38.368Z,89.40
2023-05-16T05:23:34.154Z,89.36
2023-05-16T05:24:29.575Z,89.34
2023-05-16T05:25:25.602Z,89.27
2023-05-16T05:26:20.862Z,89.26
2023-05-16T05:27:16.517Z,89.26
2023-05-16T05:28:12.142Z,89.23
2023-05-16T05:29:07.513Z,89.11
2023-05-16T05:30:02.997Z,89.14
2023-05-16T05:30:59.167Z,89.15
2023-05-16T05:31:54.628Z,89.15
2023-05-16T05:32:50.661Z,89.16
2023-05-16T05:33:46.044Z,89.14
2023-05-16T05:34:41.520Z,89.09
2023-05-16T05:35:37.459Z,89.00
2023-05-16T05:36:32.796Z,88.92
2023-05-16T05:37:28.639Z,88.84
2023-05-16T05:38:24.001Z,88.75
2023-05-16T05:39:19.436Z,88.66
2023-05-16T05:40:15.231Z,88.61
2023-05-16T05:41:10.673Z,88.57
2023-05-16T05:42:06.172Z,88.46
2023-05-16T05:43:02.472Z,88.46
2023-05-16T05:43:57.935Z,88.39
2023-05-16T05:44:53.804Z,88.42
2023-05-16T05:45:49.500Z,88.34
2023-05-16T05:46:44.787Z,88.25
2023-05-16T05:47:40.751Z,88.22
2023-05-16T05:48:36.196Z,88.15
2023-05-16T05:49:32.102Z,88.05
2023-05-16T05:50:27.636Z,87.95
2023-05-16T05:51:22.983Z,87.91
2023-05-16T05:52:18.609Z,87.89
2023-05-16T05:53:14.194Z,87.93
2023-05-16T05:54:09.795Z,87.81
2023-05-16T05:55:05.026Z,87.71
2023-05-16T05:56:00.882Z,87.68
2023-05-16T05:56:56.349Z,87.70
2023-05-16T05:57:51.801Z,87.83
2023-05-16T05:58:47.563Z,87.79
2023-05-16T05:59:43.008Z,87.72
2023-05-16T06:00:38.811Z,87.57
2023-05-16T06:01:34.223Z,87.53
2023-05-16T06:02:29.799Z,87.64
2023-05-16T06:03:25.420Z,87.90
2023-05-16T06:04:20.864Z,87.67
2023-05-16T06:05:16.473Z,87.53
2023-05-16T06:06:12.578Z,87.54
2023-05-16T06:07:07.962Z,87.42
2023-05-16T06:08:03.653Z,87.29
2023-05-16T06:08:59.065Z,87.10
2023-05-16T06:09:54.526Z,86.87
2023-05-16T06:10:50.192Z,86.84
2023-05-16T06:11:45.684Z,86.63
2023-05-16T06:12:41.084Z,86.59
2023-05-16T06:13:36.519Z,86.63
2023-05-16T06:14:31.890Z,86.62
2023-05-16T06:15:27.310Z,86.44
2023-05-16T06:16:21.967Z,86.47
2023-05-16T06:17:17.209Z,86.32
2023-05-16T06:18:12.247Z,86.33
2023-05-16T06:19:07.270Z,86.13
2023-05-16T06:20:02.286Z,86.04
2023-05-16T06:20:57.306Z,85.99
2023-05-16T06:21:52.315Z,86.08
2023-05-16T06:22:47.481Z,86.05
2023-05-16T06:23:42.447Z,85.82
2023-05-16T06:24:37.649Z,85.73
2023-05-16T06:25:34.037Z,85.85
2023-05-16T06:26:29.309Z,85.79
2023-05-16T06:27:25.091Z,85.45
2023-05-16T06:28:20.502Z,85.45
2023-05-16T06:29:15.886Z,85.46
2023-05-16T06:30:11.700Z,85.17
2023-05-16T06:31:07.275Z,85.06
2023-05-16T06:32:03.115Z,85.03
2023-05-16T06:32:58.391Z,84.67
2023-05-16T06:33:53.757Z,84.34
2023-05-16T06:34:49.433Z,84.17
2023-05-16T06:35:44.987Z,83.71
2023-05-16T06:36:40.352Z,83.56
2023-05-16T06:37:36.719Z,83.15
2023-05-16T06:38:32.195Z,83.17
2023-05-16T06:39:28.114Z,82.87
2023-05-16T06:40:23.508Z,82.90
2023-05-16T06:41:19.041Z,83.25
2023-05-16T06:42:15.040Z,82.85
2023-05-16T06:43:10.156Z,82.77
2023-05-16T06:44:05.900Z,82.44
2023-05-16T06:45:01.417Z,82.39
2023-05-16T06:45:57.091Z,82.80
2023-05-16T06:46:52.656Z,82.92
2023-05-16T06:47:48.142Z,82.47
2023-05-16T06:48:43.589Z,82.30
2023-05-16T06:49:39.875Z,82.64
2023-05-16T06:50:35.368Z,82.67
2023-05-16T06:51:31.237Z,82.50
2023-05-16T06:52:26.745Z,81.97
2023-05-16T06:53:22.189Z,81.29
2023-05-16T06:54:17.965Z,80.93
2023-05-16T06:55:14.081Z,81.27
2023-05-16T06:56:09.205Z,81.34
2023-05-16T06:57:04.514Z,80.58
2023-05-16T06:58:00.118Z,80.26
2023-05-16T06:58:55.856Z,79.63
2023-05-16T06:59:51.472Z,79.26
2023-05-16T07:00:46.884Z,78.87
2023-05-16T07:01:43.296Z,78.51
2023-05-16T07:02:38.772Z,78.48
2023-05-16T07:03:34.703Z,78.40
2023-05-16T07:04:30.625Z,78.17
2023-05-16T07:05:25.836Z,78.14
2023-05-16T07:06:21.508Z,78.09
2023-05-16T07:07:16.916Z,78.00
2023-05-16T07:08:12.666Z,78.15
2023-05-16T07:09:08.230Z,77.90
2023-05-16T07:10:03.426Z,77.83
2023-05-16T07:10:59.503Z,77.97
2023-05-16T07:11:54.709Z,77.96
2023-05-16T07:12:50.235Z,77.88
2023-05-16T07:13:46.446Z,77.85
2023-05-16T07:14:41.964Z,77.76
2023-05-16T07:15:37.906Z,77.71
2023-05-16T07:16:33.377Z,77.59
2023-05-16T07:18:52.321Z,77.23
2023-05-16T07:19:47.584Z,77.29
2023-05-16T07:20:42.979Z,76.98
2023-05-16T07:21:38.450Z,76.63
2023-05-16T07:22:33.840Z,76.10
2023-05-16T07:23:29.258Z,75.69
2023-05-16T07:24:24.680Z,75.18
2023-05-16T07:25:20.151Z,75.43
2023-05-16T07:26:15.671Z,75.48
2023-05-16T07:27:11.011Z,75.94
2023-05-16T07:28:06.423Z,75.94
2023-05-16T07:29:01.840Z,75.57
2023-05-16T07:29:57.334Z,75.33
2023-05-16T07:30:52.749Z,75.42
2023-05-16T07:31:48.064Z,75.11
2023-05-16T07:32:43.597Z,75.40
2023-05-16T07:33:39.006Z,75.21
2023-05-16T07:34:34.454Z,75.41
2023-05-16T07:35:30.189Z,75.63
2023-05-16T07:36:26.016Z,74.68
2023-05-16T07:37:20.762Z,74.92
2023-05-16T07:38:16.280Z,74.72
2023-05-16T07:39:11.667Z,74.74
2023-05-16T07:40:06.886Z,74.50
2023-05-16T07:41:02.295Z,74.68
2023-05-16T07:41:57.737Z,74.69
2023-05-16T07:42:53.174Z,74.59
2023-05-16T07:43:48.659Z,74.67
2023-05-16T07:44:44.161Z,73.89
2023-05-16T07:45:39.737Z,74.00
2023-05-16T07:46:35.190Z,73.38
2023-05-16T07:47:30.493Z,73.69
2023-05-16T07:48:25.882Z,74.40
2023-05-16T07:49:21.577Z,72.85
2023-05-16T07:50:16.826Z,72.64
2023-05-16T07:51:12.255Z,73.06
2023-05-16T07:52:07.700Z,72.57
2023-05-16T07:53:03.155Z,72.86
2023-05-16T07:53:58.552Z,72.57
2023-05-16T07:54:54.059Z,72.30
2023-05-16T07:55:50.215Z,72.40
2023-05-16T07:56:44.985Z,73.10
2023-05-16T07:57:40.417Z,73.02
2023-05-16T07:58:35.877Z,72.91
2023-05-16T07:59:32.268Z,72.95
2023-05-16T08:00:27.785Z,72.27
2023-05-16T08:01:22.131Z,72.16
2023-05-16T08:02:17.659Z,71.56
2023-05-16T08:03:13.125Z,71.68
2023-05-16T08:04:08.637Z,72.64
2023-05-16T08:05:04.010Z,72.09
2023-05-16T08:05:59.679Z,71.99
2023-05-16T08:06:55.009Z,71.75
2023-05-16T08:07:50.477Z,72.41
2023-05-16T08:08:45.866Z,71.89
2023-05-16T08:09:41.437Z,72.16
2023-05-16T08:10:36.876Z,72.40
2023-05-16T08:11:32.329Z,72.42
2023-05-16T08:12:27.771Z,72.56
2023-05-16T08:13:23.063Z,73.06
2023-05-16T08:14:18.779Z,73.22
2023-05-16T08:15:13.967Z,73.63
2023-05-16T08:16:09.475Z,73.38
2023-05-16T08:17:04.865Z,73.86
2023-05-16T08:18:00.315Z,74.31
2023-05-16T08:18:55.844Z,74.29
2023-05-16T08:19:51.145Z,74.26
2023-05-16T08:20:46.576Z,74.07
2023-05-16T08:21:41.966Z,74.07
2023-05-16T08:22:37.364Z,74.36
2023-05-16T08:23:32.710Z,74.17
2023-05-16T08:24:28.267Z,73.89
2023-05-16T08:25:23.548Z,73.69
2023-05-16T08:26:19.106Z,73.83
2023-05-16T08:27:14.475Z,73.74
2023-05-16T08:28:09.804Z,73.64
2023-05-16T08:29:05.347Z,73.96
2023-05-16T08:30:00.863Z,73.97
2023-05-16T08:30:56.030Z,73.96
2023-05-16T08:31:51.529Z,73.82
2023-05-16T08:32:46.868Z,73.68
2023-05-16T08:33:42.087Z,73.55
2023-05-16T08:34:37.461Z,73.46
2023-05-16T08:35:32.899Z,74.11
2023-05-16T08:36:28.258Z,74.28
2023-05-16T08:37:23.683Z,74.20
2023-05-16T08:38:19.046Z,74.92
2023-05-16T08:39:14.507Z,74.60
2023-05-16T08:40:09.984Z,74.43
2023-05-16T08:41:05.424Z,74.57
2023-05-16T08:42:00.893Z,74.80
2023-05-16T08:42:56.388Z,75.22
2023-05-16T08:43:51.676Z,75.13
2023-05-16T08:44:47.178Z,75.64
2023-05-16T08:45:42.421Z,75.67
2023-05-16T08:46:37.872Z,76.00
2023-05-16T08:47:33.336Z,76.47
2023-05-16T08:48:28.781Z,76.67
2023-05-16T08:49:24.248Z,76.89
2023-05-16T08:50:19.606Z,76.46
2023-05-16T08:51:14.983Z,76.71
2023-05-16T08:52:10.408Z,76.77
2023-05-16T08:53:05.787Z,76.73
2023-05-16T08:54:01.100Z,76.67
2023-05-16T08:55:09.051Z,76.89
2023-05-16T08:55:53.000Z,77.03
2023-05-16T08:56:47.652Z,77.23
2023-05-16T08:57:43.011Z,77.20
2023-05-16T08:58:38.895Z,77.22
2023-05-16T08:59:33.924Z,77.31
2023-05-16T09:00:29.413Z,77.42
2023-05-16T09:01:24.735Z,77.60
2023-05-16T09:02:20.111Z,77.53
2023-05-16T09:03:15.610Z,77.48
2023-05-16T09:04:11.042Z,77.34
2023-05-16T09:05:06.535Z,77.56
2023-05-16T09:06:01.980Z,77.71
2023-05-16T09:06:57.622Z,77.74
2023-05-16T09:07:52.793Z,77.64
2023-05-16T09:08:48.272Z,77.75
2023-05-16T09:09:43.627Z,78.08
2023-05-16T09:10:39.098Z,78.20
2023-05-16T09:11:36.755Z,77.88
2023-05-16T09:12:29.900Z,77.86
2023-05-16T09:13:25.368Z,77.90
2023-05-16T09:14:20.861Z,77.68
2023-05-16T09:15:16.468Z,77.42
2023-05-16T09:16:11.939Z,77.29
2023-05-16T09:17:08.230Z,77.14
2023-05-16T09:18:03.278Z,77.12
2023-05-16T09:18:58.827Z,77.42
2023-05-16T09:19:53.981Z,77.33
2023-05-16T09:20:49.396Z,77.42
2023-05-16T09:21:44.903Z,77.28
2023-05-16T09:22:40.355Z,77.49
2023-05-16T09:23:37.237Z,77.54
2023-05-16T09:24:31.437Z,77.80
2023-05-16T09:26:22.271Z,78.00
2023-05-16T09:27:17.634Z,78.06
2023-05-16T09:28:13.084Z,78.10
2023-05-16T09:29:08.603Z,78.10
2023-05-16T09:30:04.030Z,78.13
2023-05-16T09:30:59.534Z,78.41
2023-05-16T09:31:54.976Z,78.36
2023-05-16T09:32:50.601Z,78.20
2023-05-16T09:33:46.026Z,78.12
2023-05-16T09:34:41.729Z,78.13
2023-05-16T09:35:43.949Z,77.63
2023-05-16T09:36:33.681Z,77.81
2023-05-16T09:37:28.212Z,77.97
2023-05-16T09:38:23.824Z,77.90
2023-05-16T09:39:19.312Z,77.86
2023-05-16T09:46:50.335Z,80.68
2023-05-16T09:47:45.451Z,80.29
2023-05-16T09:48:40.950Z,80.02
2023-05-16T09:49:36.647Z,80.05
2023-05-16T09:50:31.979Z,79.79
2023-05-16T09:51:27.436Z,79.73
2023-05-16T09:52:22.954Z,79.71
2023-05-16T09:53:18.406Z,79.51
2023-05-16T09:54:13.919Z,79.19
2023-05-16T09:55:09.515Z,78.94
2023-05-16T09:56:05.029Z,78.90
2023-05-16T09:57:02.701Z,79.00
2023-05-16T09:57:55.797Z,78.96
2023-05-16T09:58:51.268Z,79.03
2023-05-16T09:59:46.948Z,78.97
2023-05-16T10:00:42.149Z,78.84
2023-05-16T10:01:37.680Z,78.71
2023-05-16T10:02:33.108Z,78.72
2023-05-16T10:03:28.550Z,78.49
2023-05-16T10:04:24.321Z,78.39
2023-05-16T10:05:19.421Z,78.33
2023-05-16T10:06:14.896Z,78.25
2023-05-16T10:07:11.313Z,78.30
2023-05-16T10:08:05.854Z,78.49
2023-05-16T10:09:02.918Z,78.31
2023-05-16T10:09:56.934Z,78.28
2023-05-16T10:10:52.447Z,78.27
2023-05-16T10:11:47.871Z,78.28
2023-05-16T10:12:43.342Z,78.23
2023-05-16T10:13:38.667Z,78.25
2023-05-16T10:14:34.146Z,78.10
2023-05-16T10:15:30.066Z,78.06
2023-05-16T10:16:25.027Z,78.23
2023-05-16T10:17:20.566Z,78.54
2023-05-16T10:18:15.934Z,78.71
2023-05-16T10:19:11.446Z,78.78
2023-05-16T10:20:07.085Z,79.03
2023-05-16T10:21:02.559Z,79.18
2023-05-16T10:21:58.142Z,79.34
2023-05-16T10:22:53.622Z,79.36
2023-05-16T10:23:48.944Z,79.43
2023-05-16T10:24:44.297Z,79.50
2023-05-16T10:25:39.830Z,79.33
2023-05-16T10:26:35.149Z,79.29
2023-05-16T10:27:30.541Z,79.42
2023-05-16T10:28:25.795Z,79.37
2023-05-16T10:29:21.321Z,79.43
2023-05-16T10:30:16.678Z,79.49
2023-05-16T10:31:12.064Z,79.32
2023-05-16T10:32:07.519Z,79.39
2023-05-16T10:33:02.949Z,79.17
2023-05-16T10:33:58.279Z,79.02
2023-05-16T10:34:53.780Z,79.01
2023-05-16T10:35:49.426Z,79.14
2023-05-16T10:36:44.723Z,79.14
2023-05-16T10:37:40.096Z,79.38
2023-05-16T10:38:35.705Z,79.43
2023-05-16T10:39:31.029Z,79.41
2023-05-16T10:40:26.497Z,79.43
2023-05-16T10:41:21.901Z,79.45
2023-05-16T10:42:17.268Z,79.43
2023-05-16T10:43:12.744Z,79.02
2023-05-16T10:44:08.476Z,78.91
2023-05-16T10:45:05.806Z,78.99
2023-05-16T10:45:59.530Z,79.22
2023-05-16T10:46:54.765Z,79.15
2023-05-16T10:47:50.281Z,78.83
2023-05-16T10:48:45.944Z,78.89
2023-05-16T10:49:41.083Z,78.65
2023-05-16T10:50:36.330Z,78.36
2023-05-16T10:51:31.786Z,78.01
2023-05-16T10:52:27.193Z,77.85
2023-05-16T10:53:22.838Z,78.00
2023-05-16T10:54:18.109Z,77.56
2023-05-16T10:55:13.559Z,77.25
2023-05-16T10:56:09.041Z,76.55
2023-05-16T10:57:04.369Z,76.24
2023-05-16T10:57:59.868Z,76.02
2023-05-16T10:58:55.185Z,75.90
2023-05-16T10:59:50.475Z,76.00
2023-05-16T11:00:45.952Z,75.86
2023-05-16T11:01:41.362Z,75.60
2023-05-16T11:02:36.767Z,75.74
2023-05-16T11:03:32.278Z,75.36
2023-05-16T11:04:27.701Z,75.59
2023-05-16T11:05:23.134Z,75.92
2023-05-16T11:06:21.047Z,75.65
2023-05-16T11:07:14.080Z,75.64
2023-05-16T11:08:09.576Z,75.78
2023-05-16T11:09:04.929Z,75.76
2023-05-16T11:10:00.355Z,75.46
2023-05-16T11:10:55.714Z,75.79
2023-05-16T11:11:51.106Z,75.57
2023-05-16T11:12:46.401Z,75.61
2023-05-16T11:13:41.833Z,75.45
2023-05-16T11:14:37.249Z,75.62
2023-05-16T11:15:32.822Z,75.42
2023-05-16T11:16:28.153Z,75.44
2023-05-16T11:17:23.896Z,75.66
2023-05-16T11:18:19.151Z,75.46
2023-05-16T11:19:14.785Z,75.42
2023-05-16T11:20:09.792Z,75.20
2023-05-16T11:21:05.397Z,75.11
2023-05-16T11:22:01.023Z,75.08
2023-05-16T11:22:56.475Z,75.39
2023-05-16T11:23:51.972Z,75.36
2023-05-16T11:24:47.593Z,75.16
2023-05-16T11:25:42.958Z,74.69
2023-05-16T11:26:38.252Z,73.98
2023-05-16T11:27:33.908Z,73.95
2023-05-16T11:28:29.092Z,73.96
2023-05-16T11:29:24.553Z,73.79
2023-05-16T11:30:20.059Z,73.66
2023-05-16T11:31:15.531Z,73.58
2023-05-16T11:32:10.911Z,73.86
2023-05-16T11:33:06.538Z,74.13
2023-05-16T11:34:01.942Z,74.33
2023-05-16T11:34:57.463Z,74.24
2023-05-16T11:35:56.683Z,74.39
2023-05-16T11:36:49.146Z,74.36
2023-05-16T11:37:43.577Z,74.26
2023-05-16T11:38:39.016Z,74.32
2023-05-16T11:39:34.505Z,73.97
2023-05-16T11:40:30.053Z,73.40
2023-05-16T11:41:25.472Z,73.41
2023-05-16T11:42:20.887Z,73.75
2023-05-16T11:43:16.319Z,74.09
2023-05-16T11:44:11.761Z,73.94
2023-05-16T11:45:07.294Z,73.98
2023-05-16T11:46:02.611Z,74.17
2023-05-16T11:46:58.183Z,73.97
2023-05-16T11:47:53.499Z,74.40
2023-05-16T11:48:48.877Z,74.31
2023-05-16T11:49:44.315Z,74.36
2023-05-16T11:50:39.936Z,74.61
2023-05-16T11:51:35.234Z,74.81
2023-05-16T11:52:30.635Z,74.95
2023-05-16T11:53:25.994Z,75.16
2023-05-16T11:54:21.325Z,75.55
2023-05-16T11:55:28.038Z,75.68
2023-05-16T11:56:13.311Z,75.75
2023-05-16T11:57:07.740Z,76.03
2023-05-16T11:58:03.196Z,76.16
2023-05-16T11:58:58.675Z,75.93
2023-05-16T11:59:54.115Z,75.99
2023-05-16T12:00:49.598Z,75.86
2023-05-16T12:01:45.207Z,75.76
2023-05-16T12:02:40.777Z,75.70
2023-05-16T12:03:36.223Z,74.91